sensor_id;sensor_type;location;lat;lon;timestamp;temperature;humidity
37846;DHT22;23686;49.828;8.702;2022-12-29T00:02:16;12.20;99.90
37846;DHT22;23686;49.828;8.702;2022-12-29T00:04:42;12.20;99.90
37846;DHT22;23686;49.828;8.702;2022-12-29T00:07:07;12.20;99.90
37846;DHT22;23686;49.828;8.702;2022-12-29T00:09:34;12.20;99.90
37846;DHT22;23686;49.828;8.702;2022-12-29T00:12:00;12.20;99.90
37846;DHT22;23686;49.828;8.702;2022-12-29T00:14:26;12.20;99.90
37846;DHT22;23686;49.828;8.702;2022-12-29T00:17:11;12.20;99.90
37846;DHT22;23686;49.828;8.702;2022-12-29T00:19:37;12.20;99.90
37846;DHT22;23686;49.828;8.702;2022-12-29T00:22:21;12.20;99.90
37846;DHT22;23686;49.828;8.702;2022-12-29T00:25:08;12.20;99.90
37846;DHT22;23686;49.828;8.702;2022-12-29T00:27:34;12.10;99.90
37846;DHT22;23686;49.828;8.702;2022-12-29T00:30:22;12.10;99.90
37846;DHT22;23686;49.828;8.702;2022-12-29T00:33:15;12.10;99.90
37846;DHT22;23686;49.828;8.702;2022-12-29T00:38:32;12.00;99.90
37846;DHT22;23686;49.828;8.702;2022-12-29T00:41:19;12.00;99.90
37846;DHT22;23686;49.828;8.702;2022-12-29T00:44:03;12.00;99.90
37846;DHT22;23686;49.828;8.702;2022-12-29T00:46:38;12.00;99.90
37846;DHT22;23686;49.828;8.702;2022-12-29T00:49:06;11.90;99.90
37846;DHT22;23686;49.828;8.702;2022-12-29T00:51:50;11.90;99.90
37846;DHT22;23686;49.828;8.702;2022-12-29T00:54:16;11.80;99.90
37846;DHT22;23686;49.828;8.702;2022-12-29T00:56:42;11.80;99.90
37846;DHT22;23686;49.828;8.702;2022-12-29T00:59:10;11.70;99.90
37846;DHT22;23686;49.828;8.702;2022-12-29T01:01:36;11.70;99.90
37846;DHT22;23686;49.828;8.702;2022-12-29T01:04:03;11.70;99.90
37846;DHT22;23686;49.828;8.702;2022-12-29T01:06:29;11.70;99.90
37846;DHT22;23686;49.828;8.702;2022-12-29T01:08:55;11.70;99.90
37846;DHT22;23686;49.828;8.702;2022-12-29T01:11:39;11.60;99.90
37846;DHT22;23686;49.828;8.702;2022-12-29T01:14:05;11.60;99.90
37846;DHT22;23686;49.828;8.702;2022-12-29T01:16:31;11.60;99.90
37846;DHT22;23686;49.828;8.702;2022-12-29T01:18:57;11.60;99.90
37846;DHT22;23686;49.828;8.702;2022-12-29T01:21:22;11.60;99.90
37846;DHT22;23686;49.828;8.702;2022-12-29T01:23:48;11.60;99.90
37846;DHT22;23686;49.828;8.702;2022-12-29T01:26:15;11.60;99.90
37846;DHT22;23686;49.828;8.702;2022-12-29T01:28:41;11.60;99.90
37846;DHT22;23686;49.828;8.702;2022-12-29T01:31:08;11.60;99.90
37846;DHT22;23686;49.828;8.702;2022-12-29T01:33:34;11.60;99.90
37846;DHT22;23686;49.828;8.702;2022-12-29T01:36:01;11.60;99.90
37846;DHT22;23686;49.828;8.702;2022-12-29T01:38:27;11.60;99.90
37846;DHT22;23686;49.828;8.702;2022-12-29T01:40:53;11.50;98.40
37846;DHT22;23686;49.828;8.702;2022-12-29T01:43:18;11.50;98.10
37846;DHT22;23686;49.828;8.702;2022-12-29T01:45:48;11.60;97.00
37846;DHT22;23686;49.828;8.702;2022-12-29T01:48:15;11.50;96.50
37846;DHT22;23686;49.828;8.702;2022-12-29T01:50:49;11.50;96.40
37846;DHT22;23686;49.828;8.702;2022-12-29T01:53:28;11.50;95.80
37846;DHT22;23686;49.828;8.702;2022-12-29T01:55:55;11.50;95.30
37846;DHT22;23686;49.828;8.702;2022-12-29T01:58:24;11.60;96.60
37846;DHT22;23686;49.828;8.702;2022-12-29T02:00:52;11.60;97.00
37846;DHT22;23686;49.828;8.702;2022-12-29T02:03:19;11.60;97.20
37846;DHT22;23686;49.828;8.702;2022-12-29T02:05:54;11.60;98.90
37846;DHT22;23686;49.828;8.702;2022-12-29T02:08:23;11.60;99.30
37846;DHT22;23686;49.828;8.702;2022-12-29T02:10:50;11.60;99.90
37846;DHT22;23686;49.828;8.702;2022-12-29T02:13:16;11.60;99.90
37846;DHT22;23686;49.828;8.702;2022-12-29T02:16:03;11.70;99.90
37846;DHT22;23686;49.828;8.702;2022-12-29T02:24:59;11.70;99.90
37846;DHT22;23686;49.828;8.702;2022-12-29T02:27:40;11.70;99.90
37846;DHT22;23686;49.828;8.702;2022-12-29T02:35:46;11.70;99.90
37846;DHT22;23686;49.828;8.702;2022-12-29T02:41:06;11.70;99.90
37846;DHT22;23686;49.828;8.702;2022-12-29T02:44:25;11.70;99.90
37846;DHT22;23686;49.828;8.702;2022-12-29T02:46:55;11.70;99.90
37846;DHT22;23686;49.828;8.702;2022-12-29T02:49:33;11.70;99.90
37846;DHT22;23686;49.828;8.702;2022-12-29T02:52:04;11.70;99.50
37846;DHT22;23686;49.828;8.702;2022-12-29T02:54:32;11.70;99.60
37846;DHT22;23686;49.828;8.702;2022-12-29T02:57:32;11.70;99.80
37846;DHT22;23686;49.828;8.702;2022-12-29T03:00:09;11.70;99.30
37846;DHT22;23686;49.828;8.702;2022-12-29T03:03:01;11.70;99.20
37846;DHT22;23686;49.828;8.702;2022-12-29T03:11:06;11.70;99.10
37846;DHT22;23686;49.828;8.702;2022-12-29T03:13:56;11.70;99.10
37846;DHT22;23686;49.828;8.702;2022-12-29T03:16:53;11.70;99.10
37846;DHT22;23686;49.828;8.702;2022-12-29T03:19:34;11.70;99.60
37846;DHT22;23686;49.828;8.702;2022-12-29T03:22:05;11.70;99.50
37846;DHT22;23686;49.828;8.702;2022-12-29T03:25:07;11.70;99.80
37846;DHT22;23686;49.828;8.702;2022-12-29T03:27:39;11.80;99.90
37846;DHT22;23686;49.828;8.702;2022-12-29T03:30:07;11.80;99.90
37846;DHT22;23686;49.828;8.702;2022-12-29T03:32:37;11.80;99.90
37846;DHT22;23686;49.828;8.702;2022-12-29T03:35:06;11.80;99.90
37846;DHT22;23686;49.828;8.702;2022-12-29T03:37:37;11.80;99.90
37846;DHT22;23686;49.828;8.702;2022-12-29T03:40:05;11.80;99.90
37846;DHT22;23686;49.828;8.702;2022-12-29T03:42:33;11.80;99.90
37846;DHT22;23686;49.828;8.702;2022-12-29T03:44:59;11.80;99.90
37846;DHT22;23686;49.828;8.702;2022-12-29T03:47:25;11.80;99.90
37846;DHT22;23686;49.828;8.702;2022-12-29T03:49:52;11.80;99.90
37846;DHT22;23686;49.828;8.702;2022-12-29T03:52:18;11.80;99.90
37846;DHT22;23686;49.828;8.702;2022-12-29T03:54:44;11.80;99.90
37846;DHT22;23686;49.828;8.702;2022-12-29T03:57:10;11.80;99.90
37846;DHT22;23686;49.828;8.702;2022-12-29T03:59:36;11.80;99.90
37846;DHT22;23686;49.828;8.702;2022-12-29T04:02:02;11.80;99.90
37846;DHT22;23686;49.828;8.702;2022-12-29T04:04:27;11.80;99.90
37846;DHT22;23686;49.828;8.702;2022-12-29T04:06:53;11.80;99.90
37846;DHT22;23686;49.828;8.702;2022-12-29T04:09:19;11.80;99.90
37846;DHT22;23686;49.828;8.702;2022-12-29T04:11:44;11.80;99.90
37846;DHT22;23686;49.828;8.702;2022-12-29T04:14:10;11.90;99.90
37846;DHT22;23686;49.828;8.702;2022-12-29T04:16:35;11.90;99.90
37846;DHT22;23686;49.828;8.702;2022-12-29T04:19:04;11.90;99.90
37846;DHT22;23686;49.828;8.702;2022-12-29T04:21:29;11.90;99.90
37846;DHT22;23686;49.828;8.702;2022-12-29T04:23:55;11.90;99.90
37846;DHT22;23686;49.828;8.702;2022-12-29T04:26:21;11.90;99.90
37846;DHT22;23686;49.828;8.702;2022-12-29T04:28:46;11.90;99.90
37846;DHT22;23686;49.828;8.702;2022-12-29T04:31:12;11.90;99.90
37846;DHT22;23686;49.828;8.702;2022-12-29T04:33:37;11.90;99.90
37846;DHT22;23686;49.828;8.702;2022-12-29T04:36:03;11.90;99.90
37846;DHT22;23686;49.828;8.702;2022-12-29T04:38:29;11.90;99.90
37846;DHT22;23686;49.828;8.702;2022-12-29T04:40:55;11.90;99.90
37846;DHT22;23686;49.828;8.702;2022-12-29T04:43:23;11.90;99.90
37846;DHT22;23686;49.828;8.702;2022-12-29T04:45:49;11.90;99.90
37846;DHT22;23686;49.828;8.702;2022-12-29T04:48:15;11.90;99.90
37846;DHT22;23686;49.828;8.702;2022-12-29T04:50:41;11.90;99.90
37846;DHT22;23686;49.828;8.702;2022-12-29T04:53:07;11.90;99.90
37846;DHT22;23686;49.828;8.702;2022-12-29T04:55:33;11.90;99.90
37846;DHT22;23686;49.828;8.702;2022-12-29T04:57:59;11.90;99.90
37846;DHT22;23686;49.828;8.702;2022-12-29T05:00:24;11.90;99.90
37846;DHT22;23686;49.828;8.702;2022-12-29T05:02:50;12.00;99.90
37846;DHT22;23686;49.828;8.702;2022-12-29T05:05:16;12.00;99.90
37846;DHT22;23686;49.828;8.702;2022-12-29T05:07:42;11.90;99.90
37846;DHT22;23686;49.828;8.702;2022-12-29T05:10:08;11.90;99.90
37846;DHT22;23686;49.828;8.702;2022-12-29T05:12:35;12.00;99.90
37846;DHT22;23686;49.828;8.702;2022-12-29T05:15:01;11.90;99.90
37846;DHT22;23686;49.828;8.702;2022-12-29T05:17:28;12.00;99.90
37846;DHT22;23686;49.828;8.702;2022-12-29T05:19:54;12.00;99.90
37846;DHT22;23686;49.828;8.702;2022-12-29T05:22:19;12.00;99.90
37846;DHT22;23686;49.828;8.702;2022-12-29T05:24:45;12.00;99.90
37846;DHT22;23686;49.828;8.702;2022-12-29T05:27:10;12.00;99.90
37846;DHT22;23686;49.828;8.702;2022-12-29T05:29:36;12.00;99.90
37846;DHT22;23686;49.828;8.702;2022-12-29T05:32:01;12.00;99.90
37846;DHT22;23686;49.828;8.702;2022-12-29T05:34:27;12.00;99.90
37846;DHT22;23686;49.828;8.702;2022-12-29T05:36:52;12.00;99.90
37846;DHT22;23686;49.828;8.702;2022-12-29T05:39:18;12.00;99.90
37846;DHT22;23686;49.828;8.702;2022-12-29T05:41:43;12.00;99.90
37846;DHT22;23686;49.828;8.702;2022-12-29T05:44:10;12.00;99.90
37846;DHT22;23686;49.828;8.702;2022-12-29T05:46:36;12.00;99.90
37846;DHT22;23686;49.828;8.702;2022-12-29T05:49:01;12.10;99.90
37846;DHT22;23686;49.828;8.702;2022-12-29T05:51:27;12.10;99.90
37846;DHT22;23686;49.828;8.702;2022-12-29T05:53:53;12.10;99.90
37846;DHT22;23686;49.828;8.702;2022-12-29T05:56:18;12.10;99.90
37846;DHT22;23686;49.828;8.702;2022-12-29T05:58:44;12.10;99.90
37846;DHT22;23686;49.828;8.702;2022-12-29T06:01:09;12.10;99.90
37846;DHT22;23686;49.828;8.702;2022-12-29T06:03:35;12.10;99.90
37846;DHT22;23686;49.828;8.702;2022-12-29T06:06:00;12.10;99.90
37846;DHT22;23686;49.828;8.702;2022-12-29T06:08:26;12.10;99.90
37846;DHT22;23686;49.828;8.702;2022-12-29T06:10:52;12.10;99.90
37846;DHT22;23686;49.828;8.702;2022-12-29T06:13:17;12.10;99.90
37846;DHT22;23686;49.828;8.702;2022-12-29T06:15:43;12.10;99.90
37846;DHT22;23686;49.828;8.702;2022-12-29T06:18:08;12.10;99.90
37846;DHT22;23686;49.828;8.702;2022-12-29T06:20:34;12.10;99.90
37846;DHT22;23686;49.828;8.702;2022-12-29T06:22:59;12.10;99.90
37846;DHT22;23686;49.828;8.702;2022-12-29T06:25:25;12.10;99.90
37846;DHT22;23686;49.828;8.702;2022-12-29T06:27:51;12.10;99.90
37846;DHT22;23686;49.828;8.702;2022-12-29T06:30:16;12.10;99.90
37846;DHT22;23686;49.828;8.702;2022-12-29T06:32:42;12.20;99.90
37846;DHT22;23686;49.828;8.702;2022-12-29T06:35:09;12.20;99.90
37846;DHT22;23686;49.828;8.702;2022-12-29T06:37:35;12.20;99.90
37846;DHT22;23686;49.828;8.702;2022-12-29T06:40:01;12.20;99.90
37846;DHT22;23686;49.828;8.702;2022-12-29T06:42:27;12.20;99.90
37846;DHT22;23686;49.828;8.702;2022-12-29T06:44:53;12.20;99.90
37846;DHT22;23686;49.828;8.702;2022-12-29T06:47:18;12.20;99.90
37846;DHT22;23686;49.828;8.702;2022-12-29T06:49:44;12.20;99.90
37846;DHT22;23686;49.828;8.702;2022-12-29T06:52:10;12.20;99.90
37846;DHT22;23686;49.828;8.702;2022-12-29T06:54:35;12.20;99.90
37846;DHT22;23686;49.828;8.702;2022-12-29T06:57:01;12.10;99.90
37846;DHT22;23686;49.828;8.702;2022-12-29T06:59:26;12.10;99.90
37846;DHT22;23686;49.828;8.702;2022-12-29T07:01:52;12.10;99.90
37846;DHT22;23686;49.828;8.702;2022-12-29T07:04:18;12.10;99.90
37846;DHT22;23686;49.828;8.702;2022-12-29T07:06:43;12.10;99.90
37846;DHT22;23686;49.828;8.702;2022-12-29T07:09:09;12.10;99.90
37846;DHT22;23686;49.828;8.702;2022-12-29T07:11:35;12.10;99.90
37846;DHT22;23686;49.828;8.702;2022-12-29T07:14:01;12.10;99.90
37846;DHT22;23686;49.828;8.702;2022-12-29T07:16:27;12.20;99.90
37846;DHT22;23686;49.828;8.702;2022-12-29T07:18:54;12.20;99.90
37846;DHT22;23686;49.828;8.702;2022-12-29T07:21:20;12.20;99.90
37846;DHT22;23686;49.828;8.702;2022-12-29T07:23:46;12.20;99.90
37846;DHT22;23686;49.828;8.702;2022-12-29T07:26:13;12.20;99.90
37846;DHT22;23686;49.828;8.702;2022-12-29T07:28:39;12.30;99.90
37846;DHT22;23686;49.828;8.702;2022-12-29T07:31:14;12.30;99.90
37846;DHT22;23686;49.828;8.702;2022-12-29T07:33:40;12.30;99.90
37846;DHT22;23686;49.828;8.702;2022-12-29T07:36:06;12.30;99.90
37846;DHT22;23686;49.828;8.702;2022-12-29T07:38:32;12.30;99.90
37846;DHT22;23686;49.828;8.702;2022-12-29T07:40:57;12.20;99.90
37846;DHT22;23686;49.828;8.702;2022-12-29T07:43:23;12.20;99.90
37846;DHT22;23686;49.828;8.702;2022-12-29T07:45:49;12.20;99.90
37846;DHT22;23686;49.828;8.702;2022-12-29T07:48:15;12.20;99.90
37846;DHT22;23686;49.828;8.702;2022-12-29T07:50:40;12.20;99.90
37846;DHT22;23686;49.828;8.702;2022-12-29T07:53:06;12.20;99.90
37846;DHT22;23686;49.828;8.702;2022-12-29T07:55:31;12.20;99.90
37846;DHT22;23686;49.828;8.702;2022-12-29T07:57:57;12.20;99.90
37846;DHT22;23686;49.828;8.702;2022-12-29T08:00:23;12.20;99.90
37846;DHT22;23686;49.828;8.702;2022-12-29T08:02:49;12.30;99.90
37846;DHT22;23686;49.828;8.702;2022-12-29T08:05:14;12.30;99.90
37846;DHT22;23686;49.828;8.702;2022-12-29T08:07:42;12.30;99.90
37846;DHT22;23686;49.828;8.702;2022-12-29T08:10:09;12.30;99.90
37846;DHT22;23686;49.828;8.702;2022-12-29T08:12:35;12.30;99.90
37846;DHT22;23686;49.828;8.702;2022-12-29T08:15:00;12.30;99.90
37846;DHT22;23686;49.828;8.702;2022-12-29T08:17:26;12.30;99.90
37846;DHT22;23686;49.828;8.702;2022-12-29T08:19:51;12.30;99.90
37846;DHT22;23686;49.828;8.702;2022-12-29T08:22:17;12.40;99.90
37846;DHT22;23686;49.828;8.702;2022-12-29T08:24:42;12.40;99.90
37846;DHT22;23686;49.828;8.702;2022-12-29T08:27:08;12.40;99.90
37846;DHT22;23686;49.828;8.702;2022-12-29T08:29:33;12.40;99.90
37846;DHT22;23686;49.828;8.702;2022-12-29T08:31:59;12.40;99.90
37846;DHT22;23686;49.828;8.702;2022-12-29T08:34:25;12.40;99.90
37846;DHT22;23686;49.828;8.702;2022-12-29T08:36:50;12.50;99.90
37846;DHT22;23686;49.828;8.702;2022-12-29T08:39:16;12.50;99.90
37846;DHT22;23686;49.828;8.702;2022-12-29T08:41:41;12.50;99.90
37846;DHT22;23686;49.828;8.702;2022-12-29T08:44:07;12.60;99.90
37846;DHT22;23686;49.828;8.702;2022-12-29T08:46:33;12.60;99.90
37846;DHT22;23686;49.828;8.702;2022-12-29T08:48:58;12.60;99.90
37846;DHT22;23686;49.828;8.702;2022-12-29T08:51:24;12.60;99.90
37846;DHT22;23686;49.828;8.702;2022-12-29T08:53:49;12.60;99.90
37846;DHT22;23686;49.828;8.702;2022-12-29T08:56:15;12.70;99.90
37846;DHT22;23686;49.828;8.702;2022-12-29T08:58:41;12.70;99.90
37846;DHT22;23686;49.828;8.702;2022-12-29T09:01:07;12.70;99.90
37846;DHT22;23686;49.828;8.702;2022-12-29T09:03:32;12.80;99.90
37846;DHT22;23686;49.828;8.702;2022-12-29T09:05:58;12.80;99.90
37846;DHT22;23686;49.828;8.702;2022-12-29T09:08:23;12.80;99.90
37846;DHT22;23686;49.828;8.702;2022-12-29T09:10:49;12.80;99.90
37846;DHT22;23686;49.828;8.702;2022-12-29T09:13:15;13.40;99.90
37846;DHT22;23686;49.828;8.702;2022-12-29T09:15:42;13.70;99.90
37846;DHT22;23686;49.828;8.702;2022-12-29T09:18:08;13.60;99.90
37846;DHT22;23686;49.828;8.702;2022-12-29T09:20:34;13.40;99.90
37846;DHT22;23686;49.828;8.702;2022-12-29T09:23:00;13.40;99.90
37846;DHT22;23686;49.828;8.702;2022-12-29T09:25:27;13.30;99.90
37846;DHT22;23686;49.828;8.702;2022-12-29T09:27:53;13.20;99.90
37846;DHT22;23686;49.828;8.702;2022-12-29T09:30:20;13.20;99.90
37846;DHT22;23686;49.828;8.702;2022-12-29T09:32:47;13.10;99.90
37846;DHT22;23686;49.828;8.702;2022-12-29T09:35:13;13.10;99.90
37846;DHT22;23686;49.828;8.702;2022-12-29T09:37:39;13.10;99.90
37846;DHT22;23686;49.828;8.702;2022-12-29T09:40:06;13.00;99.90
37846;DHT22;23686;49.828;8.702;2022-12-29T09:42:50;13.00;99.90
37846;DHT22;23686;49.828;8.702;2022-12-29T09:45:46;13.00;99.90
37846;DHT22;23686;49.828;8.702;2022-12-29T09:48:18;13.00;99.90
37846;DHT22;23686;49.828;8.702;2022-12-29T09:50:50;13.00;99.90
37846;DHT22;23686;49.828;8.702;2022-12-29T09:53:28;13.00;99.90
37846;DHT22;23686;49.828;8.702;2022-12-29T09:55:56;12.90;99.90
37846;DHT22;23686;49.828;8.702;2022-12-29T09:58:24;12.90;99.90
37846;DHT22;23686;49.828;8.702;2022-12-29T10:00:59;13.00;99.90
37846;DHT22;23686;49.828;8.702;2022-12-29T10:03:32;13.10;99.90
37846;DHT22;23686;49.828;8.702;2022-12-29T10:06:15;13.10;99.90
37846;DHT22;23686;49.828;8.702;2022-12-29T10:11:29;13.20;99.90
37846;DHT22;23686;49.828;8.702;2022-12-29T10:16:41;13.20;99.90
37846;DHT22;23686;49.828;8.702;2022-12-29T10:19:25;13.30;99.90
37846;DHT22;23686;49.828;8.702;2022-12-29T10:21:58;13.30;99.90
37846;DHT22;23686;49.828;8.702;2022-12-29T10:24:26;13.40;99.90
37846;DHT22;23686;49.828;8.702;2022-12-29T10:26:55;13.40;99.90
37846;DHT22;23686;49.828;8.702;2022-12-29T10:29:29;13.40;99.90
37846;DHT22;23686;49.828;8.702;2022-12-29T10:32:28;13.40;99.90
37846;DHT22;23686;49.828;8.702;2022-12-29T10:34:55;13.40;99.90
37846;DHT22;23686;49.828;8.702;2022-12-29T10:37:41;13.40;99.90
37846;DHT22;23686;49.828;8.702;2022-12-29T10:43:25;13.30;99.90
37846;DHT22;23686;49.828;8.702;2022-12-29T10:46:10;13.30;99.90
37846;DHT22;23686;49.828;8.702;2022-12-29T10:48:37;13.30;99.90
37846;DHT22;23686;49.828;8.702;2022-12-29T10:51:05;13.20;99.90
37846;DHT22;23686;49.828;8.702;2022-12-29T10:53:45;13.20;99.90
37846;DHT22;23686;49.828;8.702;2022-12-29T10:56:25;13.10;99.90
37846;DHT22;23686;49.828;8.702;2022-12-29T10:58:55;13.10;99.90
37846;DHT22;23686;49.828;8.702;2022-12-29T11:01:24;13.00;99.90
37846;DHT22;23686;49.828;8.702;2022-12-29T11:03:57;12.90;99.90
37846;DHT22;23686;49.828;8.702;2022-12-29T11:06:26;12.80;99.90
37846;DHT22;23686;49.828;8.702;2022-12-29T11:08:57;12.70;99.90
37846;DHT22;23686;49.828;8.702;2022-12-29T11:11:27;12.60;99.90
37846;DHT22;23686;49.828;8.702;2022-12-29T11:14:21;12.50;99.90
37846;DHT22;23686;49.828;8.702;2022-12-29T11:16:58;12.40;99.90
37846;DHT22;23686;49.828;8.702;2022-12-29T11:19:27;12.30;99.90
37846;DHT22;23686;49.828;8.702;2022-12-29T11:21:53;12.30;99.40
37846;DHT22;23686;49.828;8.702;2022-12-29T11:24:26;12.20;99.20
37846;DHT22;23686;49.828;8.702;2022-12-29T11:27:08;12.10;99.10
37846;DHT22;23686;49.828;8.702;2022-12-29T11:29:41;12.10;98.20
37846;DHT22;23686;49.828;8.702;2022-12-29T11:32:18;12.10;97.00
37846;DHT22;23686;49.828;8.702;2022-12-29T11:34:44;12.00;97.40
37846;DHT22;23686;49.828;8.702;2022-12-29T11:37:36;12.10;96.70
37846;DHT22;23686;49.828;8.702;2022-12-29T11:42:40;12.00;96.60
37846;DHT22;23686;49.828;8.702;2022-12-29T11:45:18;12.10;98.30
37846;DHT22;23686;49.828;8.702;2022-12-29T11:47:59;12.10;96.30
37846;DHT22;23686;49.828;8.702;2022-12-29T11:50:31;12.10;95.40
37846;DHT22;23686;49.828;8.702;2022-12-29T11:53:01;12.10;96.10
37846;DHT22;23686;49.828;8.702;2022-12-29T11:55:29;12.20;93.60
37846;DHT22;23686;49.828;8.702;2022-12-29T11:57:58;12.20;93.00
37846;DHT22;23686;49.828;8.702;2022-12-29T12:00:26;12.20;91.60
37846;DHT22;23686;49.828;8.702;2022-12-29T12:03:03;12.20;90.80
37846;DHT22;23686;49.828;8.702;2022-12-29T12:05:37;12.10;88.70
37846;DHT22;23686;49.828;8.702;2022-12-29T12:11:08;12.20;85.50
37846;DHT22;23686;49.828;8.702;2022-12-29T12:16:19;12.20;86.50
37846;DHT22;23686;49.828;8.702;2022-12-29T12:19:00;12.20;91.30
37846;DHT22;23686;49.828;8.702;2022-12-29T12:21:41;12.20;95.60
37846;DHT22;23686;49.828;8.702;2022-12-29T12:24:28;12.20;97.70
37846;DHT22;23686;49.828;8.702;2022-12-29T12:29:36;12.30;99.90
37846;DHT22;23686;49.828;8.702;2022-12-29T12:32:23;12.30;99.90
37846;DHT22;23686;49.828;8.702;2022-12-29T12:34:50;12.30;99.90
37846;DHT22;23686;49.828;8.702;2022-12-29T12:40:38;12.30;99.90
37846;DHT22;23686;49.828;8.702;2022-12-29T12:56:59;12.30;99.90
37846;DHT22;23686;49.828;8.702;2022-12-29T13:02:02;12.30;99.90
37846;DHT22;23686;49.828;8.702;2022-12-29T13:07:48;12.30;99.90
37846;DHT22;23686;49.828;8.702;2022-12-29T13:13:37;12.30;99.90
37846;DHT22;23686;49.828;8.702;2022-12-29T13:16:22;12.30;99.90
37846;DHT22;23686;49.828;8.702;2022-12-29T13:27:35;12.30;99.90
37846;DHT22;23686;49.828;8.702;2022-12-29T13:30:04;12.40;99.90
37846;DHT22;23686;49.828;8.702;2022-12-29T13:32:40;12.40;99.90
37846;DHT22;23686;49.828;8.702;2022-12-29T13:38:12;12.40;99.90
37846;DHT22;23686;49.828;8.702;2022-12-29T13:40:44;12.40;99.90
37846;DHT22;23686;49.828;8.702;2022-12-29T13:43:12;12.40;99.90
37846;DHT22;23686;49.828;8.702;2022-12-29T13:45:39;12.40;99.90
37846;DHT22;23686;49.828;8.702;2022-12-29T13:48:14;12.40;99.90
37846;DHT22;23686;49.828;8.702;2022-12-29T13:50:45;12.40;99.90
37846;DHT22;23686;49.828;8.702;2022-12-29T13:53:21;12.40;99.90
37846;DHT22;23686;49.828;8.702;2022-12-29T13:55:55;12.30;99.90
37846;DHT22;23686;49.828;8.702;2022-12-29T13:58:50;12.40;99.90
37846;DHT22;23686;49.828;8.702;2022-12-29T14:01:41;12.40;99.90
37846;DHT22;23686;49.828;8.702;2022-12-29T14:04:22;12.40;99.90
37846;DHT22;23686;49.828;8.702;2022-12-29T14:06:59;12.30;99.90
37846;DHT22;23686;49.828;8.702;2022-12-29T14:09:46;12.40;99.90
37846;DHT22;23686;49.828;8.702;2022-12-29T14:14:53;12.30;99.90
37846;DHT22;23686;49.828;8.702;2022-12-29T14:17:20;12.30;99.90
37846;DHT22;23686;49.828;8.702;2022-12-29T14:19:50;12.30;99.90
37846;DHT22;23686;49.828;8.702;2022-12-29T14:22:26;12.30;99.90
37846;DHT22;23686;49.828;8.702;2022-12-29T14:24:52;12.30;99.90
37846;DHT22;23686;49.828;8.702;2022-12-29T14:35:00;12.30;99.90
37846;DHT22;23686;49.828;8.702;2022-12-29T14:40:15;12.30;99.90
37846;DHT22;23686;49.828;8.702;2022-12-29T14:42:46;12.30;99.90
37846;DHT22;23686;49.828;8.702;2022-12-29T14:47:49;12.20;99.90
37846;DHT22;23686;49.828;8.702;2022-12-29T14:50:23;12.20;99.90
37846;DHT22;23686;49.828;8.702;2022-12-29T14:52:54;12.20;99.90
37846;DHT22;23686;49.828;8.702;2022-12-29T14:55:59;12.20;99.90
37846;DHT22;23686;49.828;8.702;2022-12-29T14:58:29;12.20;99.90
37846;DHT22;23686;49.828;8.702;2022-12-29T15:00:55;12.20;99.90
37846;DHT22;23686;49.828;8.702;2022-12-29T15:03:22;12.20;99.90
37846;DHT22;23686;49.828;8.702;2022-12-29T15:05:55;12.20;99.90
37846;DHT22;23686;49.828;8.702;2022-12-29T15:08:24;12.10;99.90
37846;DHT22;23686;49.828;8.702;2022-12-29T15:13:36;12.10;99.90
37846;DHT22;23686;49.828;8.702;2022-12-29T15:16:03;12.10;99.90
37846;DHT22;23686;49.828;8.702;2022-12-29T15:18:30;12.00;99.90
37846;DHT22;23686;49.828;8.702;2022-12-29T15:21:00;12.00;99.90
37846;DHT22;23686;49.828;8.702;2022-12-29T15:23:27;11.90;99.90
37846;DHT22;23686;49.828;8.702;2022-12-29T15:28:23;11.80;99.90
37846;DHT22;23686;49.828;8.702;2022-12-29T15:30:54;11.80;99.90
37846;DHT22;23686;49.828;8.702;2022-12-29T15:33:23;11.80;99.90
37846;DHT22;23686;49.828;8.702;2022-12-29T15:35:52;11.70;99.90
37846;DHT22;23686;49.828;8.702;2022-12-29T15:38:26;11.70;99.90
37846;DHT22;23686;49.828;8.702;2022-12-29T15:40:59;11.70;99.90
37846;DHT22;23686;49.828;8.702;2022-12-29T15:43:49;11.60;99.90
37846;DHT22;23686;49.828;8.702;2022-12-29T15:46:16;11.60;99.90
37846;DHT22;23686;49.828;8.702;2022-12-29T15:48:42;11.60;99.90
37846;DHT22;23686;49.828;8.702;2022-12-29T15:51:28;11.50;99.90
37846;DHT22;23686;49.828;8.702;2022-12-29T15:53:54;11.50;99.90
37846;DHT22;23686;49.828;8.702;2022-12-29T15:56:20;11.40;99.90
37846;DHT22;23686;49.828;8.702;2022-12-29T15:58:49;11.40;99.90
37846;DHT22;23686;49.828;8.702;2022-12-29T16:03:48;11.30;99.90
37846;DHT22;23686;49.828;8.702;2022-12-29T16:06:56;11.30;99.90
37846;DHT22;23686;49.828;8.702;2022-12-29T16:09:31;11.30;99.90
37846;DHT22;23686;49.828;8.702;2022-12-29T16:12:00;11.30;99.90
37846;DHT22;23686;49.828;8.702;2022-12-29T16:14:48;11.20;99.90
37846;DHT22;23686;49.828;8.702;2022-12-29T16:17:19;11.20;99.90
37846;DHT22;23686;49.828;8.702;2022-12-29T16:20:04;11.20;99.90
37846;DHT22;23686;49.828;8.702;2022-12-29T16:22:41;11.10;99.90
37846;DHT22;23686;49.828;8.702;2022-12-29T16:25:29;11.10;99.90
37846;DHT22;23686;49.828;8.702;2022-12-29T16:27:57;11.10;99.90
37846;DHT22;23686;49.828;8.702;2022-12-29T16:30:27;11.10;99.90
37846;DHT22;23686;49.828;8.702;2022-12-29T16:32:55;11.00;99.90
37846;DHT22;23686;49.828;8.702;2022-12-29T16:35:24;11.00;99.90
37846;DHT22;23686;49.828;8.702;2022-12-29T16:38:16;11.00;99.90
37846;DHT22;23686;49.828;8.702;2022-12-29T16:40:52;11.00;99.90
37846;DHT22;23686;49.828;8.702;2022-12-29T16:43:33;11.00;99.90
37846;DHT22;23686;49.828;8.702;2022-12-29T16:48:26;11.00;99.90
37846;DHT22;23686;49.828;8.702;2022-12-29T16:51:01;11.00;99.90
37846;DHT22;23686;49.828;8.702;2022-12-29T16:53:34;11.00;99.90
37846;DHT22;23686;49.828;8.702;2022-12-29T16:56:05;11.00;99.90
37846;DHT22;23686;49.828;8.702;2022-12-29T16:58:34;11.00;99.90
37846;DHT22;23686;49.828;8.702;2022-12-29T17:01:02;11.00;99.90
37846;DHT22;23686;49.828;8.702;2022-12-29T17:03:38;11.00;99.90
37846;DHT22;23686;49.828;8.702;2022-12-29T17:06:04;10.90;99.90
37846;DHT22;23686;49.828;8.702;2022-12-29T17:08:39;10.90;99.90
37846;DHT22;23686;49.828;8.702;2022-12-29T17:11:27;10.90;99.90
37846;DHT22;23686;49.828;8.702;2022-12-29T17:14:19;10.90;99.90
37846;DHT22;23686;49.828;8.702;2022-12-29T17:16:45;10.90;99.90
37846;DHT22;23686;49.828;8.702;2022-12-29T17:19:16;10.90;99.90
37846;DHT22;23686;49.828;8.702;2022-12-29T17:21:43;10.90;99.90
37846;DHT22;23686;49.828;8.702;2022-12-29T17:24:16;10.90;99.90
37846;DHT22;23686;49.828;8.702;2022-12-29T17:26:44;10.90;99.90
37846;DHT22;23686;49.828;8.702;2022-12-29T17:29:20;10.90;99.90
37846;DHT22;23686;49.828;8.702;2022-12-29T17:31:48;10.90;99.90
37846;DHT22;23686;49.828;8.702;2022-12-29T17:34:14;10.90;99.90
37846;DHT22;23686;49.828;8.702;2022-12-29T17:36:40;10.90;99.90
37846;DHT22;23686;49.828;8.702;2022-12-29T17:39:06;10.90;99.90